Time;durP1;ratioP1;P1;durP2;ratioP2;P2;SDS_P1;SDS_P2;PMS_P1;PMS_P2;Temp;Humidity;BMP_temperature;BMP_pressure;BME280_temperature;BME280_humidity;BME280_pressure;Samples;Min_cycle;Max_cycle;Signal;HPM_P1;HPM_P2
2023/10/13 00:00:34;;;;;;;13.63;8.60;;;;;;;;;;6248745;28;20099;-77
2023/10/13 00:03:36;;;;;;;12.18;8.52;;;;;;;;;;6249032;28;20081;-77
2023/10/13 00:06:42;;;;;;;13.93;8.80;;;;;;;;;;6253735;28;20060;-78
2023/10/13 00:09:44;;;;;;;12.68;8.93;;;;;;;;;;6263853;28;20053;-77
2023/10/13 00:12:49;;;;;;;11.30;8.75;;;;;;;;;;6247149;28;20107;-77
2023/10/13 00:15:57;;;;;;;14.77;8.32;;;;;;;;;;6251413;28;20054;-77
2023/10/13 00:18:58;;;;;;;13.45;9.02;;;;;;;;;;6253833;28;20056;-77
2023/10/13 00:22:08;;;;;;;13.60;9.50;;;;;;;;;;6248904;28;20084;-76
2023/10/13 00:25:19;;;;;;;14.23;9.48;;;;;;;;;;6255099;28;20056;-77
2023/10/13 00:28:24;;;;;;;14.15;8.38;;;;;;;;;;6255887;28;20072;-76
2023/10/13 00:31:28;;;;;;;13.25;8.73;;;;;;;;;;6255702;28;20356;-77
2023/10/13 00:34:32;;;;;;;13.32;9.05;;;;;;;;;;6252064;28;20058;-76
2023/10/13 00:37:42;;;;;;;15.63;9.93;;;;;;;;;;6249336;28;20061;-77
2023/10/13 00:40:51;;;;;;;14.38;9.88;;;;;;;;;;6247500;28;20057;-77
2023/10/13 00:44:04;;;;;;;14.57;9.20;;;;;;;;;;6223926;28;20057;-76
2023/10/13 00:47:07;;;;;;;16.15;9.38;;;;;;;;;;6225692;28;20156;-76
2023/10/13 00:50:14;;;;;;;14.43;9.98;;;;;;;;;;6235490;28;20089;-75
2023/10/13 00:53:17;;;;;;;12.93;8.95;;;;;;;;;;6229411;28;20046;-77
2023/10/13 00:56:21;;;;;;;17.35;9.63;;;;;;;;;;6228058;28;20056;-77
2023/10/13 00:59:25;;;;;;;;;;;;;;;;;;6219116;28;20050;-77
2023/10/13 01:02:37;;;;;;;;;;;;;;;;;;6226727;28;19925;-77
2023/10/13 01:05:39;;;;;;;11.95;8.60;;;;;;;;;;6234640;28;20256;-77
2023/10/13 01:08:44;;;;;;;11.88;8.30;;;;;;;;;;6221417;28;20046;-76
2023/10/13 01:11:48;;;;;;;15.63;8.68;;;;;;;;;;6231136;28;20160;-77
2023/10/13 01:14:49;;;;;;;17.27;10.07;;;;;;;;;;6223064;28;20099;-77
2023/10/13 01:17:51;;;;;;;13.70;9.52;;;;;;;;;;6223930;28;20054;-77
2023/10/13 01:20:52;;;;;;;12.85;9.68;;;;;;;;;;6231586;28;20053;-77
2023/10/13 01:23:55;;;;;;;18.90;10.55;;;;;;;;;;6233985;28;20054;-76
2023/10/13 01:26:58;;;;;;;14.75;9.55;;;;;;;;;;6242628;28;20048;-77
2023/10/13 01:30:05;;;;;;;16.23;10.68;;;;;;;;;;6234570;28;20061;-77
2023/10/13 01:33:08;;;;;;;13.65;9.55;;;;;;;;;;6247845;28;20056;-78
2023/10/13 01:36:12;;;;;;;22.75;11.02;;;;;;;;;;6235043;28;20069;-77
2023/10/13 01:39:16;;;;;;;14.43;9.45;;;;;;;;;;6245938;28;20368;-77
2023/10/13 01:42:21;;;;;;;14.57;9.40;;;;;;;;;;6233262;28;20054;-78
2023/10/13 01:45:28;;;;;;;13.43;8.68;;;;;;;;;;6243595;28;20061;-77
2023/10/13 01:48:32;;;;;;;14.45;8.27;;;;;;;;;;6234793;28;20127;-78
2023/10/13 01:51:34;;;;;;;16.05;9.48;;;;;;;;;;6247304;28;20049;-77
2023/10/13 01:54:40;;;;;;;12.55;8.50;;;;;;;;;;6243222;28;20099;-78
2023/10/13 01:57:47;;;;;;;10.25;8.25;;;;;;;;;;6243505;28;20246;-77
2023/10/13 02:00:48;;;;;;;15.10;9.10;;;;;;;;;;6232342;28;20052;-77
2023/10/13 02:04:00;;;;;;;12.20;9.02;;;;;;;;;;6245270;28;20057;-78
2023/10/13 02:07:02;;;;;;;14.85;8.70;;;;;;;;;;6227743;28;20108;-77
2023/10/13 02:10:06;;;;;;;11.45;8.73;;;;;;;;;;6226037;28;20725;-77
2023/10/13 02:13:15;;;;;;;12.35;8.73;;;;;;;;;;6220437;28;20049;-77
2023/10/13 02:16:21;;;;;;;11.75;8.63;;;;;;;;;;6217857;28;20097;-76
2023/10/13 02:19:27;;;;;;;11.40;8.48;;;;;;;;;;6225944;28;20049;-77
2023/10/13 02:22:29;;;;;;;11.73;8.63;;;;;;;;;;6232500;28;20095;-77
2023/10/13 02:25:42;;;;;;;15.38;9.45;;;;;;;;;;6228036;28;20121;-77
2023/10/13 02:28:50;;;;;;;14.23;8.70;;;;;;;;;;6226510;28;20248;-78
2023/10/13 02:31:54;;;;;;;15.25;9.13;;;;;;;;;;6223769;28;20388;-78
2023/10/13 02:35:05;;;;;;;16.48;9.13;;;;;;;;;;6221064;28;20050;-77
2023/10/13 02:38:10;;;;;;;11.95;8.60;;;;;;;;;;6225950;28;20059;-77
2023/10/13 02:41:19;;;;;;;15.15;8.68;;;;;;;;;;6224789;28;20080;-77
2023/10/13 02:44:26;;;;;;;11.32;8.40;;;;;;;;;;6226143;28;20045;-75
2023/10/13 02:47:31;;;;;;;13.45;9.05;;;;;;;;;;6227733;28;20050;-76
2023/10/13 02:50:33;;;;;;;11.75;9.30;;;;;;;;;;6230991;28;20070;-77
2023/10/13 02:53:34;;;;;;;12.35;8.88;;;;;;;;;;6236585;28;20064;-77
2023/10/13 02:56:38;;;;;;;13.77;10.07;;;;;;;;;;6237371;28;20104;-75
2023/10/13 02:59:46;;;;;;;13.65;8.82;;;;;;;;;;6232677;28;20101;-78
2023/10/13 03:02:58;;;;;;;14.20;8.60;;;;;;;;;;6248018;28;20346;-77
2023/10/13 03:06:00;;;;;;;13.07;9.40;;;;;;;;;;6237522;28;20050;-77
2023/10/13 03:09:13;;;;;;;15.35;9.07;;;;;;;;;;6238657;28;20048;-77
2023/10/13 03:12:17;;;;;;;10.05;7.97;;;;;;;;;;6223830;28;20057;-77
2023/10/13 03:15:20;;;;;;;12.45;8.65;;;;;;;;;;6222964;28;20352;-77
2023/10/13 03:18:22;;;;;;;12.02;8.52;;;;;;;;;;6240625;28;20219;-76
2023/10/13 03:21:29;;;;;;;15.38;9.25;;;;;;;;;;6255006;28;20048;-77
2023/10/13 03:24:34;;;;;;;15.95;9.43;;;;;;;;;;6254438;28;20073;-77
2023/10/13 03:27:48;;;;;;;14.95;9.20;;;;;;;;;;6253370;28;20108;-77
2023/10/13 03:30:52;;;;;;;13.57;9.30;;;;;;;;;;6254156;28;20057;-77
2023/10/13 03:33:59;;;;;;;14.27;9.68;;;;;;;;;;6249427;28;20069;-77
2023/10/13 03:37:10;;;;;;;12.93;9.25;;;;;;;;;;6236788;28;20135;-77
2023/10/13 03:40:34;;;;;;;16.08;9.45;;;;;;;;;;6234122;28;20050;-77
2023/10/13 03:43:44;;;;;;;12.35;8.85;;;;;;;;;;6232996;28;20356;-76
2023/10/13 03:46:48;;;;;;;13.32;9.50;;;;;;;;;;6229977;28;20357;-77
2023/10/13 03:49:51;;;;;;;14.93;10.27;;;;;;;;;;6238174;28;20385;-76
2023/10/13 03:52:57;;;;;;;16.52;10.05;;;;;;;;;;6230996;28;20054;-76
2023/10/13 03:56:08;;;;;;;15.70;9.68;;;;;;;;;;6227604;28;20329;-77
2023/10/13 03:59:18;;;;;;;15.57;9.57;;;;;;;;;;6232715;28;20069;-76
2023/10/13 04:02:21;;;;;;;15.00;9.70;;;;;;;;;;6224018;28;20052;-77
2023/10/13 04:05:36;;;;;;;13.73;9.65;;;;;;;;;;6229434;28;20096;-77
2023/10/13 04:09:51;;;;;;;15.23;9.57;;;;;;;;;;6230277;28;20334;-75
2023/10/13 04:15:43;;;;;;;14.77;8.82;;;;;;;;;;6229053;28;20057;-77
2023/10/13 04:19:07;;;;;;;15.32;9.52;;;;;;;;;;6230945;28;20054;-77
2023/10/13 04:22:20;;;;;;;13.02;8.32;;;;;;;;;;6228895;28;20046;-77
2023/10/13 04:25:35;;;;;;;12.68;8.85;;;;;;;;;;6232250;28;20117;-77
2023/10/13 04:28:50;;;;;;;14.43;9.05;;;;;;;;;;6223675;28;20048;-77
2023/10/13 04:32:00;;;;;;;15.35;9.00;;;;;;;;;;6246743;28;20049;-77
2023/10/13 04:35:08;;;;;;;15.05;8.43;;;;;;;;;;6255839;28;20041;-77
2023/10/13 04:38:19;;;;;;;15.65;8.50;;;;;;;;;;6252523;28;20389;-77
2023/10/13 04:41:22;;;;;;;12.35;9.10;;;;;;;;;;6256739;28;20064;-76
2023/10/13 04:44:48;;;;;;;15.23;8.60;;;;;;;;;;6254183;28;20054;-77
2023/10/13 04:47:57;;;;;;;17.60;8.80;;;;;;;;;;6250117;28;20203;-76
2023/10/13 04:54:33;;;;;;;12.50;8.95;;;;;;;;;;6249341;28;20072;-77
2023/10/13 04:57:46;;;;;;;14.32;9.25;;;;;;;;;;6254078;28;20057;-77
2023/10/13 05:01:23;;;;;;;14.20;9.10;;;;;;;;;;6250461;28;20069;-78
2023/10/13 05:04:38;;;;;;;16.58;8.90;;;;;;;;;;6255192;28;20072;-75
2023/10/13 05:44:37;;;;;;;12.73;9.55;;;;;;;;;;6247514;28;20246;-76
2023/10/13 05:47:50;;;;;;;16.35;10.02;;;;;;;;;;6235726;28;20334;-77
2023/10/13 05:51:32;;;;;;;12.40;9.55;;;;;;;;;;6227067;28;20054;-76
2023/10/13 06:31:02;;;;;;;22.88;13.68;;;;;;;;;;6224519;28;20046;-77
2023/10/13 06:34:04;;;;;;;20.27;13.63;;;;;;;;;;6225248;28;20049;-75
2023/10/13 06:37:22;;;;;;;22.85;14.75;;;;;;;;;;6224556;28;20045;-76
2023/10/13 06:40:26;;;;;;;24.60;14.15;;;;;;;;;;6221342;28;20116;-76
2023/10/13 06:43:32;;;;;;;23.65;13.98;;;;;;;;;;6221356;28;20350;-76
2023/10/13 06:46:34;;;;;;;22.42;13.88;;;;;;;;;;6225786;28;20046;-76
2023/10/13 06:49:38;;;;;;;19.92;13.15;;;;;;;;;;6232843;28;20251;-76
2023/10/13 06:52:42;;;;;;;21.95;13.80;;;;;;;;;;6219805;28;20054;-76
2023/10/13 06:55:46;;;;;;;22.25;14.35;;;;;;;;;;6220697;28;20057;-74
2023/10/13 06:58:49;;;;;;;18.73;13.82;;;;;;;;;;6226044;28;20347;-76
2023/10/13 07:01:52;;;;;;;22.33;11.95;;;;;;;;;;6224265;28;20389;-76
2023/10/13 07:04:56;;;;;;;23.83;13.57;;;;;;;;;;6223423;28;20104;-76
2023/10/13 07:07:59;;;;;;;21.48;13.88;;;;;;;;;;6228756;28;20046;-77
2023/10/13 07:11:05;;;;;;;18.70;12.80;;;;;;;;;;6255997;28;20146;-77
2023/10/13 07:14:10;;;;;;;23.67;12.63;;;;;;;;;;6255096;28;20058;-77
2023/10/13 07:17:12;;;;;;;18.17;11.25;;;;;;;;;;6255576;28;20042;-77
2023/10/13 07:20:23;;;;;;;15.98;11.40;;;;;;;;;;6251609;28;20053;-76
2023/10/13 07:23:25;;;;;;;18.60;12.15;;;;;;;;;;6235992;28;20050;-76
2023/10/13 07:26:28;;;;;;;17.48;11.65;;;;;;;;;;6226043;28;20121;-77
2023/10/13 07:29:33;;;;;;;18.88;12.10;;;;;;;;;;6238340;28;20064;-77
2023/10/13 07:32:35;;;;;;;17.75;10.90;;;;;;;;;;6252503;28;20073;-77
2023/10/13 07:35:37;;;;;;;18.60;11.68;;;;;;;;;;6253691;28;20057;-77
2023/10/13 07:38:38;;;;;;;18.02;12.05;;;;;;;;;;6260471;28;20045;-76
2023/10/13 07:41:43;;;;;;;17.40;11.48;;;;;;;;;;6249602;28;20133;-76
2023/10/13 07:44:46;;;;;;;20.55;11.93;;;;;;;;;;6251586;28;20072;-76
2023/10/13 07:47:49;;;;;;;15.77;10.82;;;;;;;;;;6255638;28;20096;-77
2023/10/13 07:51:01;;;;;;;18.30;12.05;;;;;;;;;;6256605;28;20123;-76
2023/10/13 07:54:11;;;;;;;15.35;10.75;;;;;;;;;;6255695;28;20049;-76
2023/10/13 07:57:14;;;;;;;17.85;10.52;;;;;;;;;;6252618;28;20060;-77
2023/10/13 08:00:28;;;;;;;16.67;10.00;;;;;;;;;;6228500;28;20168;-77
2023/10/13 08:03:35;;;;;;;15.68;9.95;;;;;;;;;;6234917;28;20087;-76
2023/10/13 08:06:37;;;;;;;11.32;8.05;;;;;;;;;;6253516;28;20113;-76
2023/10/13 08:09:40;;;;;;;15.63;10.60;;;;;;;;;;6252145;28;20047;-75
2023/10/13 08:12:44;;;;;;;;;;;;;;;;;;6253418;28;20053;-77
2023/10/13 08:15:48;;;;;;;14.38;9.38;;;;;;;;;;6253903;28;19921;-77
2023/10/13 08:18:50;;;;;;;13.18;9.20;;;;;;;;;;6253560;28;20042;-77
2023/10/13 08:21:52;;;;;;;17.77;9.35;;;;;;;;;;6247092;28;20117;-77
2023/10/13 08:24:58;;;;;;;14.25;8.52;;;;;;;;;;6229735;28;20067;-76
2023/10/13 08:28:45;;;;;;;11.65;8.80;;;;;;;;;;6232622;28;20357;-76
2023/10/13 08:31:29;;;;;;;14.27;8.43;;;;;;;;;;6239784;28;20113;-75
2023/10/13 08:34:38;;;;;;;12.48;8.68;;;;;;;;;;6251985;28;20116;-76
2023/10/13 08:37:56;;;;;;;15.10;9.07;;;;;;;;;;6253397;28;20057;-76
2023/10/13 08:44:32;;;;;;;11.57;8.40;;;;;;;;;;6254355;28;20061;-77
2023/10/13 08:47:36;;;;;;;19.27;9.52;;;;;;;;;;6257850;28;20057;-76
2023/10/13 08:50:48;;;;;;;16.05;10.50;;;;;;;;;;6256037;28;20060;-76
2023/10/13 08:53:57;;;;;;;16.40;9.23;;;;;;;;;;6255901;28;20346;-77
2023/10/13 08:57:06;;;;;;;16.35;11.00;;;;;;;;;;6251014;28;20108;-77
2023/10/13 09:00:55;;;;;;;14.13;9.10;;;;;;;;;;6249226;28;20092;-77
2023/10/13 09:03:53;;;;;;;18.50;10.75;;;;;;;;;;6225338;28;20575;-76
2023/10/13 09:07:07;;;;;;;16.20;10.90;;;;;;;;;;6236891;28;20065;-76
2023/10/13 09:10:32;;;;;;;17.13;10.85;;;;;;;;;;6223696;28;20053;-76
2023/10/13 09:13:43;;;;;;;25.42;10.18;;;;;;;;;;6232434;28;20054;-75
2023/10/13 09:17:07;;;;;;;17.60;10.40;;;;;;;;;;6224718;28;20042;-76
2023/10/13 09:20:31;;;;;;;19.33;10.88;;;;;;;;;;6227733;28;20303;-74
2023/10/13 09:23:45;;;;;;;15.52;9.73;;;;;;;;;;6229161;28;20069;-75
2023/10/13 09:26:49;;;;;;;12.95;8.40;;;;;;;;;;6222207;28;20053;-75
2023/10/13 09:29:56;;;;;;;14.55;8.80;;;;;;;;;;6241473;28;20069;-76
2023/10/13 09:33:04;;;;;;;13.88;8.80;;;;;;;;;;6246211;28;20268;-75
2023/10/13 09:36:08;;;;;;;10.63;7.60;;;;;;;;;;6238660;28;20046;-76
2023/10/13 09:39:13;;;;;;;12.48;8.48;;;;;;;;;;6217919;28;20265;-76
2023/10/13 09:42:18;;;;;;;14.07;7.82;;;;;;;;;;6218790;28;20042;-74
2023/10/13 09:45:27;;;;;;;15.00;8.32;;;;;;;;;;6223173;28;20057;-76
2023/10/13 09:48:33;;;;;;;14.30;8.52;;;;;;;;;;6246712;28;20068;-77
2023/10/13 09:51:35;;;;;;;12.20;8.05;;;;;;;;;;6225095;28;20079;-76
2023/10/13 09:54:41;;;;;;;10.77;8.00;;;;;;;;;;6226667;28;20065;-76
2023/10/13 09:57:48;;;;;;;16.65;8.90;;;;;;;;;;6221536;28;20054;-77
2023/10/13 10:00:59;;;;;;;15.02;8.68;;;;;;;;;;6228821;28;20092;-75
2023/10/13 10:04:09;;;;;;;14.07;7.20;;;;;;;;;;6241598;28;20449;-76
2023/10/13 10:07:11;;;;;;;12.23;7.53;;;;;;;;;;6226874;28;20061;-77
2023/10/13 10:10:12;;;;;;;10.77;7.37;;;;;;;;;;6233578;28;20102;-77
2023/10/13 10:13:20;;;;;;;12.07;7.50;;;;;;;;;;6235694;28;20342;-76
2023/10/13 10:16:29;;;;;;;12.85;7.88;;;;;;;;;;6234184;28;20056;-76
2023/10/13 10:19:35;;;;;;;10.95;7.50;;;;;;;;;;6243437;28;20062;-77
2023/10/13 10:22:44;;;;;;;11.98;8.10;;;;;;;;;;6244861;28;20124;-77
2023/10/13 10:25:46;;;;;;;12.13;7.55;;;;;;;;;;6242577;28;20128;-77
2023/10/13 10:28:47;;;;;;;12.55;9.05;;;;;;;;;;6236259;28;20068;-76
2023/10/13 10:31:51;;;;;;;12.20;7.40;;;;;;;;;;6252707;28;20353;-76
2023/10/13 10:35:07;;;;;;;12.52;7.65;;;;;;;;;;6243525;28;20057;-77
2023/10/13 10:38:23;;;;;;;18.65;8.88;;;;;;;;;;6253440;28;20065;-77
2023/10/13 10:41:44;;;;;;;13.93;9.57;;;;;;;;;;6251379;28;20328;-77
2023/10/13 10:44:47;;;;;;;13.85;9.88;;;;;;;;;;6260972;28;20063;-77
2023/10/13 10:47:50;;;;;;;14.50;10.25;;;;;;;;;;6255782;28;20061;-77
2023/10/13 10:50:53;;;;;;;;;;;;;;;;;;6252237;28;20400;-76
2023/10/13 10:53:57;;;;;;;17.25;8.30;;;;;;;;;;6254617;28;19959;-77
2023/10/13 10:57:10;;;;;;;15.05;8.57;;;;;;;;;;6256775;28;20060;-77
2023/10/13 11:00:20;;;;;;;18.23;9.40;;;;;;;;;;6257888;28;20049;-77
2023/10/13 11:03:22;;;;;;;17.08;8.70;;;;;;;;;;6251345;28;20258;-78
2023/10/13 11:06:25;;;;;;;15.10;8.70;;;;;;;;;;6223998;28;20438;-76
2023/10/13 11:09:36;;;;;;;16.30;6.85;;;;;;;;;;6224453;28;20117;-78
2023/10/13 11:12:39;;;;;;;12.07;7.53;;;;;;;;;;6246029;28;20057;-77
2023/10/13 11:15:45;;;;;;;10.73;8.73;;;;;;;;;;6232070;28;20353;-77
2023/10/13 11:18:47;;;;;;;11.70;7.70;;;;;;;;;;6219837;28;20322;-78
2023/10/13 11:21:49;;;;;;;10.23;6.88;;;;;;;;;;6222063;28;20175;-78
2023/10/13 11:24:53;;;;;;;12.15;7.13;;;;;;;;;;6228667;28;20064;-77
2023/10/13 11:27:59;;;;;;;10.98;6.68;;;;;;;;;;6224156;28;20075;-78
2023/10/13 11:31:10;;;;;;;10.27;5.97;;;;;;;;;;6224038;28;20045;-78
2023/10/13 11:34:16;;;;;;;11.18;5.93;;;;;;;;;;6219675;28;20053;-78
2023/10/13 11:37:37;;;;;;;10.57;6.22;;;;;;;;;;6227013;28;20049;-77
2023/10/13 11:41:06;;;;;;;8.32;5.30;;;;;;;;;;6224305;28;20073;-76
2023/10/13 11:44:23;;;;;;;8.77;5.70;;;;;;;;;;6233793;28;20226;-77
2023/10/13 11:47:47;;;;;;;9.45;5.57;;;;;;;;;;6229031;28;20101;-76
2023/10/13 11:50:49;;;;;;;11.57;5.10;;;;;;;;;;6222781;28;20051;-79
2023/10/13 11:53:52;;;;;;;12.93;6.30;;;;;;;;;;6227919;28;20053;-78
2023/10/13 11:56:58;;;;;;;9.20;5.25;;;;;;;;;;6233491;28;20238;-77
2023/10/13 12:00:24;;;;;;;10.40;5.93;;;;;;;;;;6234279;28;20064;-78
2023/10/13 12:06:59;;;;;;;8.93;5.10;;;;;;;;;;6224467;28;20042;-78
2023/10/13 12:10:15;;;;;;;8.65;5.32;;;;;;;;;;6227190;28;20067;-78
2023/10/13 12:13:19;;;;;;;9.02;5.18;;;;;;;;;;6240346;28;20050;-78
2023/10/13 12:16:22;;;;;;;6.93;4.55;;;;;;;;;;6232908;28;20057;-78
2023/10/13 12:19:24;;;;;;;10.43;4.28;;;;;;;;;;6240025;28;20054;-77
2023/10/13 12:22:28;;;;;;;6.72;4.70;;;;;;;;;;6243857;28;20144;-77
2023/10/13 12:25:44;;;;;;;9.45;4.07;;;;;;;;;;6246525;28;20057;-78
2023/10/13 12:28:51;;;;;;;7.72;4.40;;;;;;;;;;6237457;28;20045;-79
2023/10/13 12:32:05;;;;;;;11.23;5.03;;;;;;;;;;6235732;28;20065;-79
2023/10/13 12:35:27;;;;;;;8.13;4.30;;;;;;;;;;6229591;28;20246;-76
2023/10/13 12:38:36;;;;;;;6.97;4.07;;;;;;;;;;6229501;28;20266;-78
2023/10/13 12:51:51;;;;;;;7.13;4.28;;;;;;;;;;6235176;28;20049;-78
2023/10/13 12:55:05;;;;;;;6.07;4.05;;;;;;;;;;6226324;28;20062;-78
2023/10/13 12:58:08;;;;;;;10.30;4.97;;;;;;;;;;6229715;28;20250;-78
2023/10/13 13:01:34;;;;;;;8.38;4.80;;;;;;;;;;6226031;28;20043;-76
2023/10/13 13:04:37;;;;;;;7.47;4.70;;;;;;;;;;6219685;28;20058;-78
2023/10/13 13:07:46;;;;;;;9.30;4.65;;;;;;;;;;6225047;28;20551;-75
2023/10/13 13:10:49;;;;;;;8.38;5.43;;;;;;;;;;6221843;28;20334;-77
2023/10/13 13:13:51;;;;;;;10.48;4.82;;;;;;;;;;6220628;28;20046;-76
2023/10/13 13:16:54;;;;;;;8.93;4.90;;;;;;;;;;6221623;28;20076;-78
2023/10/13 13:19:56;;;;;;;52.42;32.88;;;;;;;;;;6226554;28;20054;-79
2023/10/13 13:23:02;;;;;;;58.47;40.15;;;;;;;;;;6221984;28;20053;-76
2023/10/13 13:26:15;;;;;;;15.32;6.70;;;;;;;;;;6226599;28;20076;-78
2023/10/13 13:29:17;;;;;;;10.80;4.88;;;;;;;;;;6222703;28;20057;-78
2023/10/13 13:32:23;;;;;;;9.57;5.22;;;;;;;;;;6218560;28;20050;-78
2023/10/13 13:35:33;;;;;;;10.23;4.90;;;;;;;;;;6224369;28;20410;-78
2023/10/13 13:38:35;;;;;;;9.77;4.60;;;;;;;;;;6230766;28;20046;-79
2023/10/13 13:41:37;;;;;;;8.90;5.10;;;;;;;;;;6226783;28;20057;-78
2023/10/13 13:44:39;;;;;;;;;;;;;;;;;;6218279;28;20037;-79
2023/10/13 13:47:46;;;;;;;8.07;5.35;;;;;;;;;;6230850;28;20255;-81
2023/10/13 13:50:52;;;;;;;7.05;5.00;;;;;;;;;;6227688;28;20054;-79
2023/10/13 13:53:54;;;;;;;6.63;4.70;;;;;;;;;;6232618;28;20116;-82
2023/10/13 13:56:57;;;;;;;9.00;5.15;;;;;;;;;;6226604;28;20050;-81
2023/10/13 13:59:59;;;;;;;10.82;5.15;;;;;;;;;;6238345;28;20062;-79
2023/10/13 14:03:02;;;;;;;7.60;5.20;;;;;;;;;;6217781;28;20967;-79
2023/10/13 14:06:04;;;;;;;9.52;5.22;;;;;;;;;;6223036;28;20057;-81
2023/10/13 14:09:14;;;;;;;5.63;4.57;;;;;;;;;;6227670;28;20050;-78
2023/10/13 14:12:36;;;;;;;10.65;5.00;;;;;;;;;;6230082;28;20492;-80
2023/10/13 14:15:43;;;;;;;9.98;5.13;;;;;;;;;;6218455;28;20061;-80
2023/10/13 14:18:47;;;;;;;12.23;5.28;;;;;;;;;;6226498;28;20117;-82
2023/10/13 14:21:53;;;;;;;9.65;5.25;;;;;;;;;;6221977;28;20254;-77
2023/10/13 14:24:58;;;;;;;9.77;4.50;;;;;;;;;;6220106;28;20049;-81
2023/10/13 14:28:01;;;;;;;10.85;5.30;;;;;;;;;;6218408;28;20113;-82
2023/10/13 14:31:09;;;;;;;;;;;;;;;;;;6228853;28;20075;-82
2023/10/13 14:34:13;;;;;;;10.98;5.15;;;;;;;;;;6227594;28;19917;-78
2023/10/13 14:37:20;;;;;;;9.98;5.35;;;;;;;;;;6234330;28;20062;-78
2023/10/13 14:40:22;;;;;;;10.75;5.40;;;;;;;;;;6229365;28;20109;-81
2023/10/13 14:43:27;;;;;;;7.57;5.13;;;;;;;;;;6221287;28;20113;-77
2023/10/13 14:46:28;;;;;;;8.55;5.15;;;;;;;;;;6221666;28;20055;-82
2023/10/13 14:49:31;;;;;;;77.55;57.22;;;;;;;;;;6220193;28;20057;-80
2023/10/13 14:52:35;;;;;;;43.65;28.63;;;;;;;;;;6226121;28;20156;-79
2023/10/13 14:55:39;;;;;;;56.72;33.58;;;;;;;;;;6221908;28;20113;-79
2023/10/13 14:58:42;;;;;;;21.55;6.40;;;;;;;;;;6232556;28;20152;-78
2023/10/13 15:01:44;;;;;;;6.35;4.45;;;;;;;;;;6226191;28;20043;-79
2023/10/13 15:04:49;;;;;;;9.67;6.07;;;;;;;;;;6218781;28;20064;-78
2023/10/13 15:07:51;;;;;;;17.63;5.75;;;;;;;;;;6225133;28;20313;-82
2023/10/13 15:10:52;;;;;;;9.27;5.70;;;;;;;;;;6226411;28;20054;-78
2023/10/13 15:13:55;;;;;;;11.52;4.75;;;;;;;;;;6225348;28;20046;-81
2023/10/13 15:17:00;;;;;;;;;;;;;;;;;;6224978;28;20045;-81
2023/10/13 15:20:04;;;;;;;8.73;4.47;;;;;;;;;;6222969;28;20233;-78
2023/10/13 15:23:14;;;;;;;10.20;4.43;;;;;;;;;;6225521;28;20062;-79
2023/10/13 15:26:16;;;;;;;12.60;4.75;;;;;;;;;;6225133;28;20223;-79
2023/10/13 15:29:25;;;;;;;9.88;5.13;;;;;;;;;;6230161;28;20587;-80
2023/10/13 15:32:44;;;;;;;9.27;5.32;;;;;;;;;;6230499;28;20088;-79
2023/10/13 15:35:48;;;;;;;7.78;4.90;;;;;;;;;;6229694;28;20046;-81
2023/10/13 15:38:51;;;;;;;14.60;5.28;;;;;;;;;;6230637;28;20054;-80
2023/10/13 15:41:53;;;;;;;29.83;6.72;;;;;;;;;;6241156;28;20091;-79
2023/10/13 15:44:56;;;;;;;8.20;5.17;;;;;;;;;;6232483;28;20119;-79
2023/10/13 15:47:58;;;;;;;16.73;5.00;;;;;;;;;;6227659;28;20077;-79
2023/10/13 15:51:03;;;;;;;11.93;5.15;;;;;;;;;;6220205;28;20073;-81
2023/10/13 15:54:10;;;;;;;11.40;5.45;;;;;;;;;;6249793;28;20045;-80
2023/10/13 15:57:16;;;;;;;7.85;5.07;;;;;;;;;;6260266;28;20056;-80
2023/10/13 16:00:25;;;;;;;10.52;5.43;;;;;;;;;;6253523;28;20042;-75
2023/10/13 16:03:29;;;;;;;7.50;5.53;;;;;;;;;;6228071;28;20208;-80
2023/10/13 16:06:32;;;;;;;9.50;5.55;;;;;;;;;;6226274;28;20321;-80
2023/10/13 16:09:35;;;;;;;;;;;;;;;;;;6239939;28;20064;-80
2023/10/13 16:12:37;;;;;;;11.82;5.38;;;;;;;;;;6227634;28;19925;-79
2023/10/13 16:15:42;;;;;;;7.80;5.43;;;;;;;;;;6223813;28;20054;-78
2023/10/13 16:18:44;;;;;;;10.23;5.40;;;;;;;;;;6228657;28;20052;-78
2023/10/13 16:21:47;;;;;;;12.90;5.88;;;;;;;;;;6225515;28;20041;-73
2023/10/13 16:24:49;;;;;;;;;;;;;;;;;;6229672;28;20084;-81
2023/10/13 16:27:51;;;;;;;16.10;5.72;;;;;;;;;;6230973;28;19917;-81
2023/10/13 16:30:54;;;;;;;11.02;5.20;;;;;;;;;;6229343;28;20048;-79
2023/10/13 16:33:58;;;;;;;9.10;5.80;;;;;;;;;;6231606;28;20054;-81
2023/10/13 16:37:04;;;;;;;11.75;6.07;;;;;;;;;;6222295;28;20057;-80
2023/10/13 16:40:08;;;;;;;13.25;6.13;;;;;;;;;;6222110;28;20045;-79
2023/10/13 16:43:10;;;;;;;13.90;6.95;;;;;;;;;;6220186;28;20045;-79
2023/10/13 16:46:12;;;;;;;10.88;6.35;;;;;;;;;;6226104;28;20104;-78
2023/10/13 16:49:14;;;;;;;7.50;6.00;;;;;;;;;;6225796;28;20050;-78
2023/10/13 16:52:17;;;;;;;10.20;6.00;;;;;;;;;;6222183;28;20062;-78
2023/10/13 16:55:19;;;;;;;9.93;6.13;;;;;;;;;;6229882;28;20231;-79
2023/10/13 16:58:22;;;;;;;16.77;7.05;;;;;;;;;;6221763;28;20068;-78
2023/10/13 17:01:24;;;;;;;9.90;6.50;;;;;;;;;;6225801;28;20229;-78
2023/10/13 17:04:29;;;;;;;11.80;7.00;;;;;;;;;;6231008;28;20045;-79
2023/10/13 17:07:32;;;;;;;12.80;6.95;;;;;;;;;;6222941;28;20136;-78
2023/10/13 17:10:36;;;;;;;12.15;7.18;;;;;;;;;;6228692;28;20105;-79
2023/10/13 17:13:38;;;;;;;13.32;7.78;;;;;;;;;;6224493;28;20065;-78
2023/10/13 17:16:39;;;;;;;10.48;6.47;;;;;;;;;;6221634;28;20124;-76
2023/10/13 17:19:47;;;;;;;10.70;6.18;;;;;;;;;;6225751;28;20049;-78
2023/10/13 17:22:50;;;;;;;11.43;6.55;;;;;;;;;;6223381;28;20357;-78
2023/10/13 17:25:51;;;;;;;12.93;6.78;;;;;;;;;;6227250;28;20061;-79
2023/10/13 17:28:55;;;;;;;16.10;6.85;;;;;;;;;;6227029;28;20057;-79
2023/10/13 17:31:58;;;;;;;12.45;7.38;;;;;;;;;;6240405;28;20057;-78
2023/10/13 17:35:01;;;;;;;9.35;5.75;;;;;;;;;;6236148;28;20183;-78
2023/10/13 17:38:05;;;;;;;10.73;6.30;;;;;;;;;;6218020;28;20085;-75
2023/10/13 17:41:10;;;;;;;9.05;5.65;;;;;;;;;;6223109;28;20108;-78
2023/10/13 17:44:14;;;;;;;10.15;5.47;;;;;;;;;;6220271;28;20271;-78
2023/10/13 17:47:15;;;;;;;11.05;5.93;;;;;;;;;;6230729;28;20091;-78
2023/10/13 17:50:17;;;;;;;7.80;5.15;;;;;;;;;;6229299;28;20054;-78
2023/10/13 17:53:20;;;;;;;12.10;5.47;;;;;;;;;;6227843;28;20072;-75
2023/10/13 17:56:22;;;;;;;11.45;4.88;;;;;;;;;;6220614;28;20322;-77
2023/10/13 17:59:25;;;;;;;8.55;4.63;;;;;;;;;;6225946;28;20119;-78
2023/10/13 18:02:27;;;;;;;15.68;5.60;;;;;;;;;;6228563;28;20093;-78
2023/10/13 18:05:28;;;;;;;7.90;4.90;;;;;;;;;;6228738;28;20046;-77
2023/10/13 18:08:32;;;;;;;11.07;4.82;;;;;;;;;;6227856;28;20346;-78
2023/10/13 18:11:34;;;;;;;8.60;4.68;;;;;;;;;;6237053;28;20061;-78
2023/10/13 18:14:36;;;;;;;8.95;4.80;;;;;;;;;;6222910;28;20061;-78
2023/10/13 18:17:39;;;;;;;9.07;4.68;;;;;;;;;;6225159;28;20244;-76
2023/10/13 18:20:41;;;;;;;10.77;5.25;;;;;;;;;;6222949;28;20050;-78
2023/10/13 18:23:47;;;;;;;15.07;5.28;;;;;;;;;;6226695;28;20054;-78
2023/10/13 18:26:49;;;;;;;9.35;5.15;;;;;;;;;;6222660;28;20073;-77
2023/10/13 18:29:51;;;;;;;6.57;4.78;;;;;;;;;;6230428;28;20046;-77
2023/10/13 18:32:54;;;;;;;10.88;4.30;;;;;;;;;;6222245;28;20057;-76
2023/10/13 18:35:56;;;;;;;7.03;4.72;;;;;;;;;;6221812;28;20100;-81
2023/10/13 18:39:00;;;;;;;8.93;4.85;;;;;;;;;;6224832;28;20054;-82
2023/10/13 18:42:02;;;;;;;9.98;4.82;;;;;;;;;;6222348;28;20234;-82
2023/10/13 18:45:06;;;;;;;10.32;5.50;;;;;;;;;;6224683;28;20108;-82
2023/10/13 18:48:11;;;;;;;12.40;5.93;;;;;;;;;;6225823;28;20050;-84
2023/10/13 18:51:15;;;;;;;7.38;5.50;;;;;;;;;;6237671;28;20241;-85
2023/10/13 18:54:18;;;;;;;12.20;5.20;;;;;;;;;;6243557;28;20050;-81
2023/10/13 18:57:21;;;;;;;11.13;5.45;;;;;;;;;;6235025;28;20391;-80
2023/10/13 19:00:23;;;;;;;11.05;5.38;;;;;;;;;;6257661;28;20112;-79
2023/10/13 19:03:27;;;;;;;10.77;5.43;;;;;;;;;;6253319;28;20345;-80
2023/10/13 19:06:31;;;;;;;10.75;5.03;;;;;;;;;;6228496;28;20049;-80
2023/10/13 19:09:36;;;;;;;8.18;5.30;;;;;;;;;;6230792;28;20081;-81
2023/10/13 19:12:37;;;;;;;11.68;6.60;;;;;;;;;;6247979;28;20104;-79
2023/10/13 19:15:40;;;;;;;10.20;6.10;;;;;;;;;;6227805;28;20069;-79
2023/10/13 19:18:46;;;;;;;7.10;4.38;;;;;;;;;;6230195;28;20053;-79
2023/10/13 19:21:47;;;;;;;7.07;4.47;;;;;;;;;;6232666;28;20231;-76
2023/10/13 19:24:50;;;;;;;11.65;5.35;;;;;;;;;;6231241;28;20061;-75
2023/10/13 19:27:52;;;;;;;10.07;4.95;;;;;;;;;;6231352;28;20361;-76
2023/10/13 19:30:54;;;;;;;6.97;5.05;;;;;;;;;;6228389;28;20052;-76
2023/10/13 19:33:58;;;;;;;9.02;5.97;;;;;;;;;;6243669;28;20088;-76
2023/10/13 19:37:03;;;;;;;9.35;6.00;;;;;;;;;;6254232;28;20057;-77
2023/10/13 19:40:08;;;;;;;9.73;5.60;;;;;;;;;;6249819;28;20113;-77
2023/10/13 19:43:12;;;;;;;7.38;5.00;;;;;;;;;;6249875;28;20061;-77
2023/10/13 19:46:16;;;;;;;8.52;5.75;;;;;;;;;;6249879;28;20050;-76
2023/10/13 19:49:20;;;;;;;8.93;5.38;;;;;;;;;;6250821;28;20279;-75
2023/10/13 19:52:23;;;;;;;8.80;5.00;;;;;;;;;;6248713;28;20049;-76
2023/10/13 19:55:30;;;;;;;7.10;5.45;;;;;;;;;;6243109;28;20053;-76
2023/10/13 19:58:32;;;;;;;8.77;5.43;;;;;;;;;;6249809;28;20060;-76
2023/10/13 20:01:34;;;;;;;7.28;4.93;;;;;;;;;;6252144;28;20069;-75